Main page
METAR-TAF:

METAR-TAF

Airports :

Shahid Sadooghi Airport

Yazd, Iran

latitude: 31-54N, longitude: 054-24E, elevation: 1238 m

Current weather observation

The report was made 1 hour and 4 minutes ago, at 07:00 UTC
Wind 8 kt from the Southwest
Temperature 25°C
Humidity 18%
Pressure 1017 hPa
Visibility: 4000 m
Few clouds at a height of 4000 ft
widespread dust

METAR: OIYY 030700Z 23008KT 4000 DU FEW040 25/M01 Q1017

Time: 12:34 (08:04 UTC)


TAF: missing

Weather observations and forecasts of more than 4000 airports (METAR and TAF reports).

The available stations are represented by yellow and red dots on the map.

Hover mouse over dot to see the name of the station.

Then click to see weather observations and forecasts.

To change the map : click on the green buttons with a black cross to zoom in, on the green button with a dash to zoom out, or on the green arrows for adjacent maps.


METAR-TAF: